Airfield :
LOGIN :

Register | Disclaimer

   EN    FR    IT 

 










Legend :    VFR   Marginal VFR   IFR   Intensive IFR   Very Intensive IFR
Visi :
Ceiling :
>= 8 km
>= 3000ft
5 to 8 km
1000 to 3000 ft
1500m to 5 km
500 to 1000 ft
800 to 1500m
200 to 500 ft
< 800m
< 200 ft
Symbols :   Thunderstorms  Fog  Heavy snow  Heavy precipitations  Wind > 20 kt
SIGMETs :     Misc.  Thunderstorms  Icing  Turbulence  Mountain Waves  Volcanic Ashes






- Airport Elevation : 84 ft


LFBC - Cazaux

CURRENT METAR :
  • 171900Z AUTO 29010KT 250V320 9999 // FEW030/// SCT040/// BKN056/// ///TCU 10/04 Q1031

EXPIRED METARs :
  • 171830Z AUTO 28008KT 9999 // FEW035 10/05 Q1030
  • 171800Z AUTO 28008KT 9999 // NSC 10/05 Q1030
  • 171730Z AUTO 28010KT 250V310 9999 // FEW048 10/04 Q1029
  • 171700Z AUTO 28012KT 240V310 9999 // BKN037 BKN048 11/05 Q1029
  • 171630Z AUTO 27010KT 9999 // NSC 11/06 Q1029

TAF AMD TAF LFBC
Valid from the 17 at 09:00 until the 18 at 09:00 UTC


170940Z 1709/1809 27004KT 9999 FEW025 SCT040 BKN070
TEMPO 1709/1710 30015G30KT 3000 SHRA BKN025CB BKN035TCU
PROB40
TEMPO 1709/1710 30025G40KT 1500 TSRA BKN025CB BKN035TCU
PROB40
TEMPO 1710/1715 30017G27KT 4000 SHRA BKN025CB BKN035TCU
PROB30
TEMPO 1715/1721 SHRA BKN025CB BKN035TCU



MET'MAP, your aeronautical weather chart ! - Copyright ORBIFLY December 2007 - Disclaimer

ORBIFLY MET'MAP TEAM :

Programming & Development : Alexandra Zaïnal
Concept & original design : Baudouin d'Aumeries
Assistance for programming : Marc-Olivier Méhu
Technical & hardware support : Manuel Goepfert

Contact : metmap@orbifly.com




SOURCES & CREDITS :

   NOAA